Time;durP1;ratioP1;P1;durP2;ratioP2;P2;SDS_P1;SDS_P2;PMS_P1;PMS_P2;Temp;Humidity;BMP_temperature;BMP_pressure;BME280_temperature;BME280_humidity;BME280_pressure;Samples;Min_cycle;Max_cycle;Signal;HPM_P1;HPM_P2
2022/06/09 00:01:28;;;;;;;;;1.50;1.50;;;;;;;;5082340;28;9623;-85
2022/06/09 00:04:02;;;;;;;;;2.50;2.00;;;;;;;;5082254;28;11365;-85
2022/06/09 00:06:32;;;;;;;;;2.50;0.00;;;;;;;;5080806;28;11995;-84
2022/06/09 00:09:00;;;;;;;;;3.75;1.50;;;;;;;;5063227;28;10736;-84
2022/06/09 00:11:26;;;;;;;;;3.50;2.00;;;;;;;;5082128;28;11426;-84
2022/06/09 00:13:51;;;;;;;;;1.00;0.75;;;;;;;;5081570;28;11436;-84
2022/06/09 00:16:17;;;;;;;;;2.00;1.25;;;;;;;;5081111;28;11357;-84
2022/06/09 00:18:42;;;;;;;;;3.00;1.00;;;;;;;;5082227;28;12266;-85
2022/06/09 00:21:07;;;;;;;;;1.00;1.00;;;;;;;;5062786;28;13265;-86
2022/06/09 00:23:33;;;;;;;;;3.25;2.50;;;;;;;;5082283;28;8848;-86
2022/06/09 00:25:58;;;;;;;;;4.00;3.75;;;;;;;;5082007;28;11328;-86
2022/06/09 00:28:24;;;;;;;;;1.50;1.50;;;;;;;;5082181;28;11375;-86
2022/06/09 00:30:50;;;;;;;;;3.75;1.75;;;;;;;;5081987;28;12476;-86
2022/06/09 00:33:15;;;;;;;;;3.50;1.00;;;;;;;;5081321;28;11474;-86
2022/06/09 00:35:41;;;;;;;;;2.75;1.00;;;;;;;;5080303;28;10676;-87
2022/06/09 00:38:06;;;;;;;;;1.75;1.75;;;;;;;;5081744;28;8800;-87
2022/06/09 00:40:32;;;;;;;;;2.00;1.00;;;;;;;;5081741;28;11807;-86
2022/06/09 00:43:03;;;;;;;;;3.00;1.75;;;;;;;;5081937;28;11304;-86
2022/06/09 00:45:28;;;;;;;;;3.00;2.00;;;;;;;;5081752;28;11393;-86
2022/06/09 00:47:57;;;;;;;;;2.00;2.00;;;;;;;;5081397;28;10004;-86
2022/06/09 00:50:23;;;;;;;;;3.00;2.00;;;;;;;;5063447;28;8769;-86
2022/06/09 00:52:54;;;;;;;;;1.00;1.00;;;;;;;;5063252;28;10906;-86
2022/06/09 00:55:21;;;;;;;;;2.75;2.75;;;;;;;;5081118;28;9792;-86
2022/06/09 00:58:02;;;;;;;;;4.50;2.00;;;;;;;;5080541;28;11377;-86
2022/06/09 01:00:31;;;;;;;;;1.75;1.00;;;;;;;;5080661;28;11572;-87
2022/06/09 01:02:58;;;;;;;;;1.00;1.00;;;;;;;;5080478;28;10932;-87
2022/06/09 01:05:23;;;;;;;;;2.00;2.00;;;;;;;;5062780;28;9621;-87
2022/06/09 01:07:50;;;;;;;;;2.50;2.00;;;;;;;;5081610;28;9788;-87
2022/06/09 01:10:16;;;;;;;;;2.50;1.00;;;;;;;;5062240;28;8915;-87
2022/06/09 01:12:43;;;;;;;;;2.50;1.75;;;;;;;;5080489;28;10126;-88
2022/06/09 01:15:11;;;;;;;;;3.25;1.00;;;;;;;;5062318;28;8819;-87
2022/06/09 01:17:36;;;;;;;;;1.00;1.00;;;;;;;;5079909;28;11393;-86
2022/06/09 01:20:09;;;;;;;;;3.00;1.25;;;;;;;;5062011;28;10776;-86
2022/06/09 01:23:10;;;;;;;;;3.50;1.25;;;;;;;;5080558;28;11453;-85
2022/06/09 01:25:38;;;;;;;;;7.25;2.00;;;;;;;;4962573;28;9727;-84
2022/06/09 01:28:03;;;;;;;;;2.00;1.00;;;;;;;;5060428;28;11923;-82
2022/06/09 01:30:37;;;;;;;;;2.00;1.00;;;;;;;;5061543;28;12699;-82
2022/06/09 01:33:09;;;;;;;;;2.75;2.75;;;;;;;;5080546;28;9506;-83
2022/06/09 01:36:00;;;;;;;;;4.00;3.00;;;;;;;;5079548;28;10889;-84
2022/06/09 01:38:25;;;;;;;;;2.50;1.00;;;;;;;;5074255;28;11619;-83
2022/06/09 01:40:51;;;;;;;;;1.00;1.00;;;;;;;;5079960;28;10799;-83
2022/06/09 01:43:16;;;;;;;;;3.50;2.00;;;;;;;;5079260;28;8981;-83
2022/06/09 01:45:44;;;;;;;;;2.50;1.25;;;;;;;;5079636;28;10296;-83
2022/06/09 01:48:13;;;;;;;;;5.75;2.00;;;;;;;;5079685;28;11628;-83
2022/06/09 01:50:45;;;;;;;;;3.50;2.25;;;;;;;;5079859;28;11456;-82
2022/06/09 01:53:16;;;;;;;;;4.75;1.50;;;;;;;;5060398;28;13402;-82
2022/06/09 01:55:44;;;;;;;;;2.00;2.00;;;;;;;;5079690;28;11717;-82
2022/06/09 01:58:12;;;;;;;;;3.25;2.00;;;;;;;;5079045;28;13236;-82
2022/06/09 02:00:38;;;;;;;;;2.75;2.75;;;;;;;;5079595;28;9717;-81
2022/06/09 02:03:06;;;;;;;;;2.00;2.00;;;;;;;;5079128;28;11615;-78
2022/06/09 02:05:37;;;;;;;;;0.50;0.50;;;;;;;;5079751;28;8893;-80
2022/06/09 02:08:04;;;;;;;;;4.75;3.00;;;;;;;;5078980;28;11656;-82
2022/06/09 02:10:34;;;;;;;;;2.75;2.00;;;;;;;;5079414;28;11955;-84
2022/06/09 02:13:05;;;;;;;;;3.00;2.50;;;;;;;;5078995;28;10381;-84
2022/06/09 02:15:36;;;;;;;;;4.00;2.00;;;;;;;;5078252;28;13688;-83
2022/06/09 02:18:13;;;;;;;;;4.00;2.25;;;;;;;;5079654;28;12536;-76
2022/06/09 02:20:42;;;;;;;;;4.75;3.00;;;;;;;;5079142;28;9652;-76
2022/06/09 02:23:08;;;;;;;;;2.75;2.00;;;;;;;;5079260;28;10574;-74
2022/06/09 02:25:33;;;;;;;;;4.75;2.00;;;;;;;;5078493;28;9797;-76
2022/06/09 02:27:58;;;;;;;;;2.00;2.00;;;;;;;;5098512;28;9640;-79
2022/06/09 02:30:25;;;;;;;;;4.25;2.00;;;;;;;;5099378;28;9580;-76
2022/06/09 02:32:50;;;;;;;;;1.25;1.25;;;;;;;;5098666;28;9025;-76
2022/06/09 02:35:16;;;;;;;;;3.00;3.00;;;;;;;;5095912;28;11283;-74
2022/06/09 02:37:41;;;;;;;;;5.00;2.50;;;;;;;;5088330;28;11880;-76
2022/06/09 02:40:07;;;;;;;;;4.25;2.00;;;;;;;;5077563;28;11366;-76
2022/06/09 02:42:32;;;;;;;;;7.00;4.00;;;;;;;;5075987;28;11312;-77
2022/06/09 02:44:58;;;;;;;;;3.25;2.75;;;;;;;;5076824;28;10492;-77
2022/06/09 02:47:23;;;;;;;;;5.50;2.00;;;;;;;;5077033;28;11835;-77
2022/06/09 02:49:48;;;;;;;;;7.00;3.00;;;;;;;;5076773;28;11349;-78
2022/06/09 02:52:14;;;;;;;;;4.75;2.00;;;;;;;;5042071;28;12512;-77
2022/06/09 02:54:39;;;;;;;;;3.50;2.00;;;;;;;;5077506;28;10661;-77
2022/06/09 02:57:05;;;;;;;;;3.50;2.25;;;;;;;;5078932;28;8980;-78
2022/06/09 02:59:30;;;;;;;;;9.00;2.75;;;;;;;;5082611;28;8817;-77
2022/06/09 03:01:56;;;;;;;;;3.00;2.00;;;;;;;;5081900;28;10861;-77
2022/06/09 03:04:21;;;;;;;;;4.00;3.00;;;;;;;;5063244;28;12598;-77
2022/06/09 03:06:47;;;;;;;;;3.00;3.00;;;;;;;;5063435;28;8910;-77
2022/06/09 03:09:12;;;;;;;;;3.75;2.00;;;;;;;;5081941;28;8887;-77
2022/06/09 03:11:37;;;;;;;;;2.00;2.00;;;;;;;;5081991;28;9796;-77
2022/06/09 03:14:02;;;;;;;;;3.50;1.75;;;;;;;;5081713;28;8807;-77
2022/06/09 03:16:28;;;;;;;;;4.00;3.00;;;;;;;;5081243;28;12524;-78
2022/06/09 03:18:53;;;;;;;;;3.50;3.00;;;;;;;;5081438;28;11650;-79
2022/06/09 03:21:18;;;;;;;;;6.50;3.00;;;;;;;;5081352;28;9315;-78
2022/06/09 03:23:44;;;;;;;;;4.00;2.00;;;;;;;;5062878;28;8852;-77
2022/06/09 03:26:09;;;;;;;;;3.25;2.25;;;;;;;;5081872;28;10277;-79
2022/06/09 03:28:35;;;;;;;;;6.75;2.00;;;;;;;;5081956;28;11492;-77
2022/06/09 03:31:00;;;;;;;;;3.00;3.00;;;;;;;;5081580;28;11633;-78
2022/06/09 03:33:26;;;;;;;;;3.50;3.50;;;;;;;;5081728;28;11086;-77
2022/06/09 03:35:51;;;;;;;;;3.00;3.00;;;;;;;;5081271;28;8859;-77
2022/06/09 03:38:16;;;;;;;;;1.75;0.75;;;;;;;;5081648;28;8800;-77
2022/06/09 03:40:45;;;;;;;;;5.00;2.50;;;;;;;;5081141;28;11554;-76
2022/06/09 03:43:10;;;;;;;;;3.75;2.50;;;;;;;;5081308;28;11417;-76
2022/06/09 03:45:35;;;;;;;;;4.25;3.00;;;;;;;;5080912;28;9805;-76
2022/06/09 03:48:01;;;;;;;;;4.00;2.00;;;;;;;;5080907;28;11652;-77
2022/06/09 03:50:27;;;;;;;;;2.50;2.50;;;;;;;;5081049;28;9453;-76
2022/06/09 03:52:53;;;;;;;;;2.75;2.75;;;;;;;;5080990;28;11377;-76
2022/06/09 03:55:18;;;;;;;;;3.25;3.25;;;;;;;;5080645;28;9809;-77
2022/06/09 03:57:44;;;;;;;;;2.00;2.00;;;;;;;;5062969;28;13528;-77
2022/06/09 04:00:13;;;;;;;;;4.00;3.00;;;;;;;;5098185;28;12391;-77
2022/06/09 04:02:40;;;;;;;;;6.50;3.00;;;;;;;;5101571;28;8794;-78
2022/06/09 04:05:05;;;;;;;;;4.00;4.00;;;;;;;;5082783;28;10178;-77
2022/06/09 04:07:31;;;;;;;;;1.50;1.50;;;;;;;;5082416;28;12755;-77
2022/06/09 04:09:56;;;;;;;;;4.25;3.75;;;;;;;;5101067;28;11276;-78
2022/06/09 04:12:21;;;;;;;;;5.00;3.00;;;;;;;;5082589;28;13350;-77
2022/06/09 04:14:47;;;;;;;;;4.00;3.00;;;;;;;;5082434;28;13452;-78
2022/06/09 04:17:13;;;;;;;;;4.50;3.25;;;;;;;;5082238;28;8829;-78
2022/06/09 04:19:38;;;;;;;;;3.50;2.25;;;;;;;;5082842;28;10757;-78
2022/06/09 04:22:04;;;;;;;;;5.00;5.00;;;;;;;;5083056;28;8790;-77
2022/06/09 04:24:30;;;;;;;;;8.00;4.00;;;;;;;;5101374;28;11709;-77
2022/06/09 04:26:55;;;;;;;;;4.25;4.00;;;;;;;;5101207;28;10035;-77
2022/06/09 04:29:20;;;;;;;;;5.25;4.00;;;;;;;;5100721;28;9922;-77
2022/06/09 04:31:46;;;;;;;;;5.50;3.00;;;;;;;;5100750;28;8806;-76
2022/06/09 04:34:11;;;;;;;;;4.00;2.00;;;;;;;;5100843;28;9675;-76
2022/06/09 04:36:37;;;;;;;;;3.00;2.00;;;;;;;;5095767;28;12901;-77
2022/06/09 04:39:03;;;;;;;;;3.00;3.00;;;;;;;;5100760;28;8770;-76
2022/06/09 04:41:29;;;;;;;;;4.75;4.75;;;;;;;;5100838;28;8793;-77
2022/06/09 04:43:54;;;;;;;;;3.75;3.75;;;;;;;;5100936;28;11449;-77
2022/06/09 04:46:21;;;;;;;;;10.25;7.00;;;;;;;;5101055;28;9143;-77
2022/06/09 04:48:47;;;;;;;;;2.00;2.00;;;;;;;;5100004;28;21467;-77
2022/06/09 04:51:13;;;;;;;;;8.00;4.50;;;;;;;;5098260;28;23596;-78
2022/06/09 04:53:39;;;;;;;;;7.50;4.25;;;;;;;;5101031;28;11386;-77
2022/06/09 04:56:05;;;;;;;;;3.50;3.00;;;;;;;;5100648;28;11926;-77
2022/06/09 04:58:31;;;;;;;;;3.75;3.75;;;;;;;;5098651;28;12000;-77
2022/06/09 05:00:56;;;;;;;;;5.00;3.00;;;;;;;;5100375;28;10745;-77
2022/06/09 05:03:23;;;;;;;;;8.00;5.50;;;;;;;;5098670;28;13091;-77
2022/06/09 05:05:48;;;;;;;;;8.25;4.00;;;;;;;;5100008;28;11602;-77
2022/06/09 05:08:14;;;;;;;;;4.75;4.00;;;;;;;;5100227;28;10314;-77
2022/06/09 05:10:41;;;;;;;;;3.75;2.00;;;;;;;;5100261;28;8797;-77
2022/06/09 05:13:06;;;;;;;;;4.75;4.00;;;;;;;;5096148;28;11045;-76
2022/06/09 05:15:33;;;;;;;;;4.00;4.00;;;;;;;;5099918;28;9858;-76
2022/06/09 05:17:58;;;;;;;;;4.50;3.50;;;;;;;;5099018;28;8828;-76
2022/06/09 05:20:25;;;;;;;;;2.75;2.75;;;;;;;;5096595;28;10691;-76
2022/06/09 05:22:50;;;;;;;;;7.00;6.00;;;;;;;;5097085;28;14657;-77
2022/06/09 05:25:16;;;;;;;;;5.00;5.00;;;;;;;;5097991;28;11806;-80
2022/06/09 05:27:41;;;;;;;;;3.25;3.25;;;;;;;;5098454;28;8958;-76
2022/06/09 05:30:09;;;;;;;;;5.00;5.00;;;;;;;;5098367;28;11698;-80
2022/06/09 05:32:34;;;;;;;;;6.00;3.25;;;;;;;;5099409;28;11386;-76
2022/06/09 05:34:59;;;;;;;;;7.75;6.00;;;;;;;;5099075;28;11704;-78
2022/06/09 05:37:25;;;;;;;;;7.50;5.00;;;;;;;;5100270;28;11452;-79
2022/06/09 05:45:18;;;;;;;;;5.00;4.50;;;;;;;;5098591;28;11350;-74
2022/06/09 05:47:44;;;;;;;;;7.00;4.50;;;;;;;;5079468;28;12457;-72
2022/06/09 05:50:09;;;;;;;;;7.00;5.00;;;;;;;;5079889;28;9876;-72
2022/06/09 05:52:35;;;;;;;;;5.00;4.00;;;;;;;;5079642;28;11097;-80
2022/06/09 05:55:00;;;;;;;;;6.00;5.00;;;;;;;;5098244;28;9839;-77
2022/06/09 05:57:26;;;;;;;;;5.25;4.50;;;;;;;;5098227;28;8928;-77
2022/06/09 05:59:52;;;;;;;;;4.50;4.50;;;;;;;;5097842;28;11449;-78
2022/06/09 06:02:19;;;;;;;;;6.75;5.00;;;;;;;;5080307;28;9435;-75
2022/06/09 06:04:45;;;;;;;;;14.25;7.50;;;;;;;;5095702;28;11499;-77
2022/06/09 06:07:10;;;;;;;;;6.00;4.75;;;;;;;;5079446;28;21956;-77
2022/06/09 06:09:36;;;;;;;;;11.00;6.50;;;;;;;;5097359;28;21590;-79
2022/06/09 06:12:03;;;;;;;;;7.50;7.00;;;;;;;;5097719;28;21379;-78
2022/06/09 06:14:29;;;;;;;;;7.00;5.75;;;;;;;;5078714;28;23902;-74
2022/06/09 06:16:55;;;;;;;;;8.75;6.25;;;;;;;;5097753;28;12162;-74
2022/06/09 06:19:22;;;;;;;;;8.75;4.75;;;;;;;;5097588;28;10452;-76
2022/06/09 06:21:48;;;;;;;;;9.00;6.25;;;;;;;;5097250;28;8794;-72
2022/06/09 06:24:14;;;;;;;;;10.50;6.75;;;;;;;;5097141;28;11505;-75
2022/06/09 06:26:39;;;;;;;;;5.75;5.00;;;;;;;;5094414;28;21820;-76
2022/06/09 06:29:06;;;;;;;;;6.00;5.00;;;;;;;;5097645;28;21567;-74
2022/06/09 06:31:31;;;;;;;;;8.00;5.00;;;;;;;;5096920;28;9066;-76
2022/06/09 06:33:58;;;;;;;;;3.25;2.50;;;;;;;;5097415;28;9829;-74
2022/06/09 06:36:23;;;;;;;;;4.50;4.50;;;;;;;;5096725;28;11604;-75
2022/06/09 06:38:49;;;;;;;;;6.00;4.50;;;;;;;;5078228;28;12359;-76
2022/06/09 06:41:15;;;;;;;;;8.25;8.25;;;;;;;;5097545;28;9074;-75
2022/06/09 06:43:40;;;;;;;;;4.00;4.00;;;;;;;;5078948;28;13448;-74
2022/06/09 06:46:07;;;;;;;;;9.75;9.25;;;;;;;;5078238;28;12024;-75
2022/06/09 06:48:33;;;;;;;;;7.00;5.75;;;;;;;;5096624;28;11756;-74
2022/06/09 06:50:59;;;;;;;;;9.25;7.50;;;;;;;;5078569;28;10876;-75
2022/06/09 06:53:25;;;;;;;;;7.75;6.50;;;;;;;;5097046;28;11702;-77
2022/06/09 06:55:50;;;;;;;;;5.00;4.00;;;;;;;;5097384;28;9436;-76
2022/06/09 06:58:16;;;;;;;;;7.25;4.00;;;;;;;;5094476;28;11327;-75
2022/06/09 07:00:42;;;;;;;;;9.50;5.75;;;;;;;;5078891;28;10894;-76
2022/06/09 07:03:08;;;;;;;;;5.00;5.00;;;;;;;;5097076;28;11466;-75
2022/06/09 07:05:34;;;;;;;;;8.00;8.00;;;;;;;;5097193;28;11646;-77
2022/06/09 07:08:00;;;;;;;;;9.25;6.00;;;;;;;;5096925;28;9796;-77
2022/06/09 07:10:25;;;;;;;;;11.00;6.00;;;;;;;;5097128;28;10443;-77
2022/06/09 07:12:51;;;;;;;;;9.50;7.50;;;;;;;;5096760;28;16990;-75
2022/06/09 07:15:16;;;;;;;;;6.75;6.75;;;;;;;;5096292;28;21298;-77
2022/06/09 07:17:41;;;;;;;;;10.25;5.75;;;;;;;;5078228;28;13554;-76
2022/06/09 07:20:08;;;;;;;;;7.00;4.00;;;;;;;;5077770;28;24665;-78
2022/06/09 07:22:33;;;;;;;;;5.75;5.75;;;;;;;;5096141;28;22522;-77
2022/06/09 07:24:59;;;;;;;;;5.75;5.75;;;;;;;;5096270;28;12491;-78
2022/06/09 07:27:25;;;;;;;;;9.50;7.50;;;;;;;;5093723;28;8829;-76
2022/06/09 07:29:50;;;;;;;;;10.00;7.00;;;;;;;;5096136;28;11365;-78
2022/06/09 07:32:16;;;;;;;;;6.00;6.00;;;;;;;;5095993;28;21324;-79
2022/06/09 07:34:41;;;;;;;;;4.50;4.50;;;;;;;;5096465;28;21364;-79
2022/06/09 07:37:06;;;;;;;;;5.00;5.00;;;;;;;;5096838;28;11641;-80
2022/06/09 07:39:33;;;;;;;;;7.50;5.75;;;;;;;;5078169;28;11819;-79
2022/06/09 07:41:58;;;;;;;;;6.00;6.00;;;;;;;;5096505;28;11763;-82
2022/06/09 07:44:24;;;;;;;;;4.00;4.00;;;;;;;;5100467;28;12474;-81
2022/06/09 07:46:49;;;;;;;;;5.00;5.00;;;;;;;;5101255;28;8833;-82
2022/06/09 07:49:15;;;;;;;;;12.75;7.75;;;;;;;;5100500;28;10009;-82
2022/06/09 07:51:40;;;;;;;;;5.67;5.67;;;;;;;;5081321;28;23639;-80
2022/06/09 07:54:06;;;;;;;;;5.00;5.00;;;;;;;;5099763;28;22474;-85
2022/06/09 07:56:33;;;;;;;;;4.00;2.00;;;;;;;;5099979;28;8828;-78
2022/06/09 07:59:02;;;;;;;;;2.33;2.33;;;;;;;;5100055;28;9057;-79
2022/06/09 08:01:29;;;;;;;;;3.00;3.00;;;;;;;;5099722;28;11581;-90
2022/06/09 08:03:54;;;;;;;;;1.00;1.00;;;;;;;;5100492;28;11558;-86
2022/06/09 08:06:20;;;;;;;;;3.00;1.00;;;;;;;;5101947;28;9734;-90
2022/06/09 08:08:45;;;;;;;;;1.33;1.33;;;;;;;;5101773;28;8838;-87
2022/06/09 08:11:11;;;;;;;;;1.33;1.33;;;;;;;;5101917;28;11428;-88
2022/06/09 08:13:36;;;;;;;;;1.67;1.67;;;;;;;;5101581;28;8810;-88
2022/06/09 08:16:02;;;;;;;;;1.33;1.00;;;;;;;;5101550;28;8833;-88
2022/06/09 08:18:28;;;;;;;;;1.50;1.50;;;;;;;;5101366;28;8793;-87
2022/06/09 08:20:55;;;;;;;;;1.00;1.00;;;;;;;;5083686;28;10553;-88
2022/06/09 08:23:24;;;;;;;;;4.00;3.00;;;;;;;;5102238;28;10106;-89
2022/06/09 08:25:50;;;;;;;;;0.00;0.00;;;;;;;;5102612;28;9802;-89
2022/06/09 08:28:18;;;;;;;;;0.00;0.00;;;;;;;;5084177;28;9178;-89
2022/06/09 08:30:44;;;;;;;;;0.00;0.00;;;;;;;;5102757;28;8836;-88
2022/06/09 08:33:09;;;;;;;;;0.00;0.00;;;;;;;;5103241;28;8783;-89
2022/06/09 08:35:36;;;;;;;;;0.00;0.00;;;;;;;;5103087;28;8826;-88
2022/06/09 08:38:02;;;;;;;;;0.00;0.00;;;;;;;;5083735;28;8778;-88
2022/06/09 08:40:34;;;;;;;;;0.50;0.00;;;;;;;;5102057;28;8901;-89
2022/06/09 08:43:00;;;;;;;;;0.00;0.00;;;;;;;;5102481;28;8778;-88
2022/06/09 08:45:31;;;;;;;;;0.00;0.00;;;;;;;;5102633;28;9540;-88
2022/06/09 08:47:58;;;;;;;;;0.00;0.00;;;;;;;;5102390;28;8779;-89
2022/06/09 08:50:23;;;;;;;;;0.00;0.00;;;;;;;;5102243;28;8779;-88
2022/06/09 08:52:52;;;;;;;;;0.00;0.00;;;;;;;;5102982;28;8821;-88
2022/06/09 08:55:38;;;;;;;;;0.00;0.00;;;;;;;;5101614;28;8913;-88
2022/06/09 08:58:10;;;;;;;;;0.00;0.00;;;;;;;;5102599;28;8774;-89
2022/06/09 09:00:38;;;;;;;;;0.00;0.00;;;;;;;;5113805;28;9073;-89
2022/06/09 09:03:07;;;;;;;;;0.00;0.00;;;;;;;;5118800;28;8758;-88
2022/06/09 09:05:36;;;;;;;;;0.00;0.00;;;;;;;;5115292;28;8750;-87
2022/06/09 09:08:03;;;;;;;;;0.00;0.00;;;;;;;;5118309;28;8758;-88
2022/06/09 09:10:49;;;;;;;;;0.00;0.00;;;;;;;;5121723;28;8762;-88
2022/06/09 09:13:14;;;;;;;;;0.00;0.00;;;;;;;;5116761;28;8835;-89
2022/06/09 09:15:44;;;;;;;;;0.00;0.00;;;;;;;;5102864;28;9470;-88
2022/06/09 09:18:28;;;;;;;;;0.00;0.00;;;;;;;;5102787;28;8800;-89
2022/06/09 09:21:12;;;;;;;;;0.00;0.00;;;;;;;;5102140;28;8790;-89
2022/06/09 09:23:46;;;;;;;;;2.00;1.50;;;;;;;;5101601;28;8759;-91
2022/06/09 09:26:18;;;;;;;;;0.00;0.00;;;;;;;;5082822;28;14569;-89
2022/06/09 09:29:09;;;;;;;;;2.25;0.00;;;;;;;;5102057;28;11417;-89
2022/06/09 09:31:37;;;;;;;;;0.25;0.25;;;;;;;;5062382;28;8723;-89
2022/06/09 09:34:03;;;;;;;;;0.75;0.75;;;;;;;;5101896;28;11957;-88
2022/06/09 09:36:36;;;;;;;;;2.67;2.00;;;;;;;;5101165;28;8825;-89
2022/06/09 09:39:10;;;;;;;;;1.00;1.00;;;;;;;;5082267;28;13611;-89
2022/06/09 09:41:37;;;;;;;;;1.00;0.50;;;;;;;;5100546;28;10333;-88
2022/06/09 09:44:17;;;;;;;;;1.50;0.00;;;;;;;;5101322;28;9356;-89
2022/06/09 09:46:47;;;;;;;;;1.75;1.75;;;;;;;;5082360;28;9956;-86
2022/06/09 09:49:22;;;;;;;;;0.00;0.00;;;;;;;;5100823;28;11805;-88
2022/06/09 09:51:48;;;;;;;;;0.00;0.00;;;;;;;;5100420;28;11629;-88
2022/06/09 09:54:26;;;;;;;;;1.00;0.00;;;;;;;;5100588;28;8779;-87
2022/06/09 09:57:01;;;;;;;;;0.50;0.00;;;;;;;;5099863;28;8810;-87
2022/06/09 09:59:27;;;;;;;;;0.00;0.00;;;;;;;;5100507;28;10212;-87
2022/06/09 10:10:19;;;;;;;;;6.25;5.75;;;;;;;;5099405;28;8893;-74
2022/06/09 10:12:45;;;;;;;;;0.25;0.00;;;;;;;;5094060;28;11383;-88
2022/06/09 10:15:10;;;;;;;;;1.00;1.00;;;;;;;;5099252;28;11230;-85
2022/06/09 10:17:41;;;;;;;;;0.00;0.00;;;;;;;;5099012;28;10252;-86
2022/06/09 10:20:06;;;;;;;;;0.00;0.00;;;;;;;;5099729;28;8793;-86
2022/06/09 10:22:33;;;;;;;;;0.00;0.00;;;;;;;;5080003;28;8799;-86
2022/06/09 10:25:25;;;;;;;;;0.00;0.00;;;;;;;;5099201;28;8883;-87
2022/06/09 10:27:53;;;;;;;;;0.00;0.00;;;;;;;;5074587;28;8948;-84
2022/06/09 10:30:29;;;;;;;;;0.00;0.00;;;;;;;;5099109;28;8774;-86
2022/06/09 10:32:58;;;;;;;;;1.75;0.00;;;;;;;;5097248;28;8774;-85
2022/06/09 10:35:29;;;;;;;;;0.00;0.00;;;;;;;;5098582;28;8998;-82
2022/06/09 10:38:04;;;;;;;;;0.00;0.00;;;;;;;;5100170;28;9977;-90
2022/06/09 10:40:38;;;;;;;;;0.00;0.00;;;;;;;;5099382;28;8790;-90
2022/06/09 10:43:26;;;;;;;;;0.25;0.00;;;;;;;;5079535;28;8830;-83
2022/06/09 10:46:10;;;;;;;;;0.00;0.00;;;;;;;;5062086;28;9062;-91
2022/06/09 10:57:34;;;;;;;;;0.00;0.00;;;;;;;;5096478;28;8798;-77
2022/06/09 11:00:19;;;;;;;;;0.00;0.00;;;;;;;;5096347;28;8826;-77
2022/06/09 11:02:50;;;;;;;;;0.00;0.00;;;;;;;;5078725;28;8823;-77
2022/06/09 11:05:17;;;;;;;;;0.00;0.00;;;;;;;;5094717;28;8908;-78
2022/06/09 11:07:45;;;;;;;;;0.00;0.00;;;;;;;;5098022;28;8790;-80
2022/06/09 11:10:23;;;;;;;;;0.00;0.00;;;;;;;;5095071;28;8798;-80
2022/06/09 11:12:51;;;;;;;;;0.00;0.00;;;;;;;;5097525;28;8802;-80
2022/06/09 11:15:38;;;;;;;;;0.00;0.00;;;;;;;;5097365;28;8821;-81
2022/06/09 11:18:12;;;;;;;;;0.00;0.00;;;;;;;;5098270;28;8779;-80
2022/06/09 11:20:46;;;;;;;;;0.00;0.00;;;;;;;;5099716;28;8870;-81
2022/06/09 11:23:30;;;;;;;;;0.00;0.00;;;;;;;;5079848;28;8810;-81
2022/06/09 11:26:02;;;;;;;;;0.00;0.00;;;;;;;;5080162;28;9677;-81
2022/06/09 11:28:43;;;;;;;;;0.00;0.00;;;;;;;;5101749;28;8821;-82
2022/06/09 11:31:35;;;;;;;;;0.00;0.00;;;;;;;;5101499;28;8783;-82
2022/06/09 11:34:07;;;;;;;;;0.00;0.00;;;;;;;;5099801;28;8791;-81
2022/06/09 11:36:40;;;;;;;;;0.00;0.00;;;;;;;;5098727;28;8928;-81
2022/06/09 11:39:19;;;;;;;;;0.00;0.00;;;;;;;;5082330;28;8833;-83
2022/06/09 11:41:59;;;;;;;;;0.00;0.00;;;;;;;;5100369;28;8790;-81
2022/06/09 11:44:35;;;;;;;;;0.00;0.00;;;;;;;;5101196;28;8786;-82
2022/06/09 11:47:02;;;;;;;;;0.00;0.00;;;;;;;;5099066;28;8815;-83
2022/06/09 11:49:30;;;;;;;;;0.00;0.00;;;;;;;;5101113;28;8798;-82
2022/06/09 11:51:59;;;;;;;;;0.00;0.00;;;;;;;;5100478;28;8934;-82
2022/06/09 11:54:39;;;;;;;;;0.00;0.00;;;;;;;;5101015;28;8799;-83
2022/06/09 11:57:26;;;;;;;;;0.00;0.00;;;;;;;;5099519;28;8791;-83
2022/06/09 11:59:59;;;;;;;;;0.00;0.00;;;;;;;;5097857;28;8782;-81
2022/06/09 12:02:31;;;;;;;;;0.00;0.00;;;;;;;;5101379;28;8778;-81
2022/06/09 12:05:02;;;;;;;;;0.00;0.00;;;;;;;;5101837;28;9495;-81
2022/06/09 12:07:41;;;;;;;;;0.00;0.00;;;;;;;;5101689;28;8783;-81
2022/06/09 12:10:27;;;;;;;;;0.00;0.00;;;;;;;;5101663;28;8791;-81
2022/06/09 12:13:05;;;;;;;;;0.00;0.00;;;;;;;;5101342;28;8782;-81
2022/06/09 12:15:32;;;;;;;;;0.00;0.00;;;;;;;;5100578;28;8786;-81
2022/06/09 12:18:13;;;;;;;;;0.00;0.00;;;;;;;;5101503;28;8767;-81
2022/06/09 12:20:47;;;;;;;;;0.00;0.00;;;;;;;;5101308;28;8775;-81
2022/06/09 12:23:31;;;;;;;;;0.00;0.00;;;;;;;;5100838;28;8920;-82
2022/06/09 12:26:18;;;;;;;;;0.00;0.00;;;;;;;;5102019;28;8767;-84
2022/06/09 12:28:50;;;;;;;;;0.00;0.00;;;;;;;;5100902;28;8783;-84
2022/06/09 12:31:20;;;;;;;;;0.00;0.00;;;;;;;;5099871;28;8762;-85
2022/06/09 12:34:05;;;;;;;;;0.00;0.00;;;;;;;;5100584;28;8785;-82
2022/06/09 12:36:33;;;;;;;;;0.00;0.00;;;;;;;;5100441;28;8810;-83
2022/06/09 12:39:00;;;;;;;;;0.00;0.00;;;;;;;;5101204;28;8935;-84
2022/06/09 12:41:34;;;;;;;;;0.00;0.00;;;;;;;;5099916;28;8806;-84
2022/06/09 12:44:16;;;;;;;;;0.00;0.00;;;;;;;;5097842;28;9799;-84
2022/06/09 12:46:42;;;;;;;;;0.00;0.00;;;;;;;;5080428;28;8857;-84
2022/06/09 12:49:15;;;;;;;;;0.00;0.00;;;;;;;;5100136;28;8803;-85
2022/06/09 12:51:41;;;;;;;;;0.00;0.00;;;;;;;;5099064;28;8813;-84
2022/06/09 12:54:17;;;;;;;;;0.00;0.00;;;;;;;;5100992;28;8806;-86
2022/06/09 12:56:44;;;;;;;;;0.00;0.00;;;;;;;;5081727;28;8818;-81
2022/06/09 12:59:28;;;;;;;;;0.00;0.00;;;;;;;;5099612;28;8799;-81
2022/06/09 13:01:56;;;;;;;;;0.00;0.00;;;;;;;;5081202;28;8798;-81
2022/06/09 14:49:36;;;;;;;;;0.00;0.00;;;;;;;;5175905;27;78043;-85
2022/06/09 14:52:02;;;;;;;;;0.00;0.00;;;;;;;;5157323;27;20550;-85
2022/06/09 14:54:27;;;;;;;;;0.00;0.00;;;;;;;;5149963;27;8794;-85
2022/06/09 14:56:55;;;;;;;;;1.00;0.00;;;;;;;;5169249;22;8828;-88
2022/06/09 14:59:20;;;;;;;;;0.00;0.00;;;;;;;;5113042;27;8774;-81
2022/06/09 15:01:49;;;;;;;;;0.00;0.00;;;;;;;;5111537;27;9531;-79
2022/06/09 15:04:15;;;;;;;;;0.00;0.00;;;;;;;;5094817;28;11456;-78
2022/06/09 15:06:41;;;;;;;;;0.00;0.00;;;;;;;;5095621;28;8881;-77
2022/06/09 15:09:06;;;;;;;;;0.00;0.00;;;;;;;;5095050;28;8831;-77
2022/06/09 15:11:32;;;;;;;;;0.00;0.00;;;;;;;;5094968;28;8792;-77
2022/06/09 15:13:58;;;;;;;;;0.00;0.00;;;;;;;;5095410;28;8799;-74
2022/06/09 15:16:26;;;;;;;;;0.00;0.00;;;;;;;;5096269;28;9648;-80
2022/06/09 15:18:51;;;;;;;;;0.00;0.00;;;;;;;;5102750;28;8836;-80
2022/06/09 15:21:20;;;;;;;;;0.00;0.00;;;;;;;;5114789;28;8948;-78
2022/06/09 15:23:49;;;;;;;;;0.50;0.00;;;;;;;;5114783;27;8960;-81
2022/06/09 15:26:19;;;;;;;;;0.00;0.00;;;;;;;;5115839;27;8790;-82
2022/06/09 15:28:45;;;;;;;;;0.00;0.00;;;;;;;;5115998;27;8805;-80
2022/06/09 15:31:11;;;;;;;;;0.00;0.00;;;;;;;;5116390;27;8793;-80
2022/06/09 15:33:36;;;;;;;;;0.00;0.00;;;;;;;;5099130;28;8843;-93
2022/06/09 15:36:01;;;;;;;;;1.00;0.00;;;;;;;;5095795;28;8820;-83
2022/06/09 15:38:31;;;;;;;;;0.00;0.00;;;;;;;;5095204;28;8807;-76
2022/06/09 15:40:57;;;;;;;;;0.00;0.00;;;;;;;;5093812;28;9902;-79
2022/06/09 15:43:22;;;;;;;;;0.00;0.00;;;;;;;;5095406;28;8826;-78
2022/06/09 15:45:49;;;;;;;;;0.00;0.00;;;;;;;;5098315;28;8878;-79
2022/06/09 15:48:20;;;;;;;;;1.00;0.00;;;;;;;;5115394;27;8805;-77
2022/06/09 15:50:45;;;;;;;;;0.00;0.00;;;;;;;;5113729;28;8809;-78
2022/06/09 15:53:12;;;;;;;;;0.00;0.00;;;;;;;;5115049;27;8828;-81
2022/06/09 15:55:38;;;;;;;;;0.00;0.00;;;;;;;;5116070;27;8845;-81
2022/06/09 15:58:04;;;;;;;;;0.00;0.00;;;;;;;;5115483;27;8905;-79
2022/06/09 16:00:31;;;;;;;;;0.00;0.00;;;;;;;;5104067;28;8821;-77
2022/06/09 16:02:57;;;;;;;;;0.00;0.00;;;;;;;;5089894;28;8820;-77
2022/06/09 16:05:22;;;;;;;;;0.00;0.00;;;;;;;;5080571;28;8910;-78
2022/06/09 16:07:48;;;;;;;;;0.00;0.00;;;;;;;;5081389;28;8846;-81
2022/06/09 16:10:33;;;;;;;;;0.00;0.00;;;;;;;;5081800;28;11440;-81
2022/06/09 16:12:59;;;;;;;;;0.00;0.00;;;;;;;;5082271;28;8799;-81
2022/06/09 16:15:25;;;;;;;;;0.00;0.00;;;;;;;;5101883;28;9485;-80
2022/06/09 16:17:50;;;;;;;;;0.00;0.00;;;;;;;;5095373;28;8832;-80
2022/06/09 16:20:21;;;;;;;;;0.00;0.00;;;;;;;;5082327;28;11453;-80
2022/06/09 16:22:46;;;;;;;;;0.00;0.00;;;;;;;;5100019;28;9652;-80
2022/06/09 16:25:11;;;;;;;;;0.00;0.00;;;;;;;;5101759;28;8855;-81
2022/06/09 16:27:37;;;;;;;;;0.00;0.00;;;;;;;;5102020;28;8831;-82
2022/06/09 16:30:03;;;;;;;;;0.00;0.00;;;;;;;;5101620;28;8773;-83
2022/06/09 16:32:29;;;;;;;;;0.00;0.00;;;;;;;;5101845;28;8783;-81
2022/06/09 16:34:54;;;;;;;;;0.00;0.00;;;;;;;;5101296;28;8789;-81
2022/06/09 16:37:19;;;;;;;;;0.00;0.00;;;;;;;;5099991;28;8895;-81
2022/06/09 16:39:45;;;;;;;;;0.00;0.00;;;;;;;;5101326;28;8789;-79
2022/06/09 16:42:10;;;;;;;;;0.00;0.00;;;;;;;;5102111;28;8812;-76
2022/06/09 16:44:38;;;;;;;;;0.00;0.00;;;;;;;;5099176;28;8915;-76
2022/06/09 16:47:04;;;;;;;;;0.00;0.00;;;;;;;;5100756;28;8832;-78
2022/06/09 16:49:30;;;;;;;;;0.00;0.00;;;;;;;;5101427;28;8805;-76
2022/06/09 16:51:55;;;;;;;;;0.00;0.00;;;;;;;;5097001;28;8805;-78
2022/06/09 16:54:21;;;;;;;;;0.00;0.00;;;;;;;;5079646;28;8804;-78
2022/06/09 16:56:46;;;;;;;;;0.00;0.00;;;;;;;;5079960;28;8808;-78
2022/06/09 16:59:11;;;;;;;;;0.00;0.00;;;;;;;;5079831;28;8977;-76
2022/06/09 17:01:37;;;;;;;;;1.00;0.00;;;;;;;;5085577;28;8816;-74
2022/06/09 17:04:02;;;;;;;;;0.00;0.00;;;;;;;;5100537;28;8805;-79
2022/06/09 17:06:28;;;;;;;;;0.00;0.00;;;;;;;;5101037;28;9518;-73